Time;durP1;ratioP1;P1;durP2;ratioP2;P2;SDS_P1;SDS_P2;PMS_P1;PMS_P2;Temp;Humidity;BMP_temperature;BMP_pressure;BME280_temperature;BME280_humidity;BME280_pressure;Samples;Min_cycle;Max_cycle;Signal;HPM_P1;HPM_P2
2023/05/15 00:00:10;;;;;;;16.35;11.30;;;7.30;61.30;;;;;;5071572;28;20029;-75
2023/05/15 00:02:37;;;;;;;22.40;13.95;;;7.20;61.80;;;;;;5071618;28;20079;-75
2023/05/15 00:05:04;;;;;;;15.77;11.77;;;7.10;61.30;;;;;;5072866;28;20056;-75
2023/05/15 00:07:33;;;;;;;16.60;12.13;;;7.20;60.90;;;;;;5070267;28;20103;-75
2023/05/15 00:09:59;;;;;;;18.23;12.60;;;7.30;60.60;;;;;;5072871;28;20021;-75
2023/05/15 00:12:24;;;;;;;16.73;12.52;;;7.40;60.70;;;;;;5072692;28;20550;-75
2023/05/15 00:14:50;;;;;;;19.95;13.60;;;7.40;60.70;;;;;;5073292;28;20094;-75
2023/05/15 00:17:15;;;;;;;21.42;14.30;;;7.40;60.90;;;;;;5057420;28;20031;-75
2023/05/15 00:19:41;;;;;;;23.88;15.50;;;7.40;60.70;;;;;;5071976;28;20111;-75
2023/05/15 00:22:07;;;;;;;28.33;16.63;;;7.40;60.60;;;;;;5075054;28;20021;-75
2023/05/15 00:24:33;;;;;;;20.52;14.60;;;7.50;60.60;;;;;;5072890;28;20317;-75
2023/05/15 00:26:59;;;;;;;20.05;14.15;;;7.50;60.80;;;;;;5056479;28;20129;-75
2023/05/15 00:29:25;;;;;;;15.85;11.48;;;7.50;60.80;;;;;;5072175;28;20055;-75
2023/05/15 00:31:51;;;;;;;19.27;13.57;;;7.40;61.30;;;;;;5074246;28;20033;-75
2023/05/15 00:34:16;;;;;;;19.83;13.20;;;7.20;60.90;;;;;;5054676;28;20028;-75
2023/05/15 00:36:42;;;;;;;21.88;15.40;;;7.30;60.40;;;;;;5075049;28;20086;-75
2023/05/15 00:39:08;;;;;;;22.38;14.50;;;7.40;60.50;;;;;;5071199;28;20043;-75
2023/05/15 00:41:35;;;;;;;21.88;14.98;;;7.50;60.50;;;;;;5072595;28;20578;-75
2023/05/15 00:44:01;;;;;;;22.40;15.75;;;7.60;60.50;;;;;;5073371;28;20107;-74
2023/05/15 00:46:29;;;;;;;24.08;14.35;;;7.70;60.50;;;;;;5073920;28;20111;-75
2023/05/15 00:48:56;;;;;;;23.25;13.77;;;7.70;60.70;;;;;;5072833;28;20021;-76
2023/05/15 00:51:22;;;;;;;22.65;14.90;;;7.50;61.00;;;;;;5073867;28;20025;-75
2023/05/15 00:53:51;;;;;;;18.73;13.45;;;7.40;60.50;;;;;;5071023;28;20436;-75
2023/05/15 00:56:17;;;;;;;21.10;14.55;;;7.40;60.60;;;;;;5071480;28;20051;-75
2023/05/15 00:58:45;;;;;;;19.50;13.95;;;7.40;60.60;;;;;;5071789;28;20440;-76
2023/05/15 01:01:12;;;;;;;17.23;13.48;;;7.40;60.60;;;;;;5072295;28;20025;-76
2023/05/15 01:03:38;;;;;;;20.15;13.35;;;7.30;60.90;;;;;;5073681;28;20036;-75
2023/05/15 01:06:04;;;;;;;20.33;12.48;;;7.20;61.10;;;;;;5071631;28;20032;-76
2023/05/15 01:08:46;;;;;;;14.45;10.90;;;7.00;61.40;;;;;;5070159;28;20835;-75
2023/05/15 01:11:14;;;;;;;18.83;13.10;;;7.00;60.60;;;;;;5069859;28;20440;-75
2023/05/15 01:13:40;;;;;;;20.05;13.25;;;7.10;60.60;;;;;;5055314;28;20043;-75
2023/05/15 01:16:07;;;;;;;21.52;14.20;;;7.20;60.70;;;;;;5055374;28;20024;-75
2023/05/15 01:18:33;;;;;;;17.67;12.95;;;7.20;60.60;;;;;;5042489;28;20063;-75
2023/05/15 01:21:04;;;;;;;23.10;15.15;;;7.30;60.50;;;;;;5072901;28;20145;-75
2023/05/15 01:23:48;;;;;;;20.63;14.00;;;7.40;60.50;;;;;;5073301;28;20100;-75
2023/05/15 01:26:31;;;;;;;19.30;13.43;;;7.40;60.50;;;;;;5076668;28;20020;-75
2023/05/15 01:29:18;;;;;;;22.35;13.80;;;7.50;60.40;;;;;;5059239;28;20044;-75
2023/05/15 01:31:49;;;;;;;18.33;13.15;;;7.60;60.50;;;;;;5076257;28;20035;-75
2023/05/15 01:34:18;;;;;;;20.70;14.00;;;7.60;60.50;;;;;;5076841;28;20083;-75
2023/05/15 01:36:55;;;;;;;19.75;13.55;;;7.60;60.50;;;;;;5073930;28;20312;-75
2023/05/15 01:39:25;;;;;;;15.70;11.90;;;7.60;60.50;;;;;;5075129;28;20085;-75
2023/05/15 01:41:59;;;;;;;19.20;13.30;;;7.70;60.40;;;;;;5076337;28;20021;-75
2023/05/15 01:44:30;;;;;;;;;;;7.80;60.40;;;;;;5058142;28;20455;-75
2023/05/15 01:47:05;;;;;;;21.67;13.70;;;7.90;60.20;;;;;;5056074;28;20311;-75
2023/05/15 01:49:32;;;;;;;18.13;13.05;;;8.10;60.30;;;;;;5075986;28;20486;-75
2023/05/15 01:52:19;;;;;;;18.15;13.10;;;8.20;60.30;;;;;;5071222;28;20112;-75
2023/05/15 01:54:46;;;;;;;15.43;11.32;;;8.10;60.60;;;;;;5073302;28;20024;-75
2023/05/15 01:57:14;;;;;;;17.27;11.27;;;8.10;60.50;;;;;;5057215;28;20028;-74
2023/05/15 01:59:44;;;;;;;19.58;13.52;;;8.10;60.20;;;;;;5070964;28;20039;-73
2023/05/15 02:02:12;;;;;;;19.20;14.25;;;8.20;60.20;;;;;;5067751;28;20328;-75
2023/05/15 02:04:39;;;;;;;18.20;13.05;;;8.40;60.30;;;;;;5073175;28;20112;-76
2023/05/15 02:07:06;;;;;;;17.55;12.70;;;8.40;60.30;;;;;;5072140;28;20046;-75
2023/05/15 02:09:35;;;;;;;17.27;12.13;;;8.30;60.40;;;;;;5072168;28;20368;-76
2023/05/15 02:12:02;;;;;;;18.30;12.90;;;8.30;60.30;;;;;;5058011;28;20103;-74
2023/05/15 02:14:29;;;;;;;17.33;11.77;;;8.30;60.30;;;;;;5074147;28;20019;-74
2023/05/15 02:16:55;;;;;;;16.13;11.00;;;8.20;60.50;;;;;;5074647;28;20024;-73
2023/05/15 02:19:20;;;;;;;13.63;10.38;;;8.20;60.30;;;;;;5060271;28;20035;-74
2023/05/15 02:21:46;;;;;;;14.52;10.75;;;8.20;60.30;;;;;;5074984;28;20058;-75
2023/05/15 02:24:12;;;;;;;16.70;11.50;;;8.30;60.20;;;;;;5072676;28;20029;-74
2023/05/15 02:26:40;;;;;;;18.33;12.23;;;8.40;60.20;;;;;;5073062;28;20413;-75
2023/05/15 02:29:20;;;;;;;15.05;11.55;;;8.40;60.20;;;;;;5076037;28;20040;-75
2023/05/15 02:32:22;;;;;;;24.88;15.30;;;8.50;60.20;;;;;;5056410;28;20053;-75
2023/05/15 02:35:09;;;;;;;18.02;11.43;;;8.50;60.30;;;;;;5056036;28;20041;-74
2023/05/15 02:37:39;;;;;;;14.70;9.95;;;8.40;60.50;;;;;;5071449;28;20103;-75
2023/05/15 02:40:09;;;;;;;15.20;10.50;;;8.40;60.30;;;;;;5075521;28;20027;-75
2023/05/15 02:42:36;;;;;;;17.08;11.80;;;8.40;60.20;;;;;;5075820;28;20039;-75
2023/05/15 02:45:04;;;;;;;15.25;11.32;;;8.40;60.10;;;;;;5056992;28;20024;-75
2023/05/15 02:47:32;;;;;;;13.55;10.45;;;8.60;60.20;;;;;;5075098;28;20031;-75
2023/05/15 02:50:01;;;;;;;17.20;11.05;;;8.60;60.20;;;;;;5074086;28;20024;-75
2023/05/15 02:52:27;;;;;;;14.00;10.40;;;8.50;60.30;;;;;;5075956;28;20294;-75
2023/05/15 02:54:52;;;;;;;15.65;10.68;;;8.40;60.40;;;;;;5073393;28;20032;-75
2023/05/15 02:57:18;;;;;;;13.98;10.45;;;8.40;60.30;;;;;;5074693;28;20094;-75
2023/05/15 02:59:44;;;;;;;24.30;14.80;;;8.40;60.20;;;;;;5075100;28;20032;-75
2023/05/15 03:02:09;;;;;;;16.92;12.13;;;8.40;60.20;;;;;;5074415;28;20062;-75
2023/05/15 03:04:35;;;;;;;17.10;12.00;;;8.40;60.20;;;;;;5073231;28;20054;-75
2023/05/15 03:07:00;;;;;;;15.80;11.68;;;8.50;60.10;;;;;;5073418;28;20028;-75
2023/05/15 03:09:27;;;;;;;18.13;12.20;;;8.50;60.20;;;;;;5073766;28;20020;-75
2023/05/15 03:11:52;;;;;;;13.05;10.00;;;8.50;60.30;;;;;;5075659;28;20036;-75
2023/05/15 03:14:18;;;;;;;16.52;11.30;;;8.50;60.20;;;;;;5075727;28;20039;-75
2023/05/15 03:16:43;;;;;;;16.08;10.80;;;8.50;60.30;;;;;;5075537;28;20028;-75
2023/05/15 03:19:09;;;;;;;14.13;10.70;;;8.40;60.30;;;;;;5069392;28;20097;-75
2023/05/15 03:21:35;;;;;;;16.17;11.93;;;8.40;60.20;;;;;;5075493;28;20032;-75
2023/05/15 03:24:00;;;;;;;16.30;11.55;;;8.40;60.20;;;;;;5073736;28;20078;-75
2023/05/15 03:26:26;;;;;;;15.73;11.02;;;8.50;60.20;;;;;;5076708;28;20025;-76
2023/05/15 03:28:52;;;;;;;18.15;12.93;;;8.50;60.20;;;;;;5074085;28;20044;-75
2023/05/15 03:31:18;;;;;;;15.73;11.32;;;8.50;60.20;;;;;;5057683;28;20775;-75
2023/05/15 03:33:48;;;;;;;17.42;12.95;;;8.50;60.20;;;;;;5070836;28;20082;-75
2023/05/15 03:36:14;;;;;;;14.93;11.80;;;8.50;60.20;;;;;;5071218;28;20042;-75
2023/05/15 03:38:40;;;;;;;15.43;11.23;;;8.50;60.10;;;;;;5050956;28;20037;-75
2023/05/15 03:41:06;;;;;;;15.90;12.10;;;8.50;60.30;;;;;;5071932;28;20483;-73
2023/05/15 03:43:31;;;;;;;16.63;11.93;;;8.50;60.20;;;;;;5072355;28;20036;-76
2023/05/15 03:45:58;;;;;;;17.08;12.75;;;8.50;60.20;;;;;;5071933;28;20079;-75
2023/05/15 03:48:23;;;;;;;16.23;11.88;;;8.50;60.20;;;;;;5070612;28;20147;-75
2023/05/15 03:50:51;;;;;;;16.95;12.93;;;8.50;60.20;;;;;;5072511;28;20099;-76
2023/05/15 03:53:16;;;;;;;16.75;12.48;;;8.50;60.20;;;;;;5055344;28;20085;-75
2023/05/15 03:55:42;;;;;;;18.60;12.20;;;8.50;60.20;;;;;;5073752;28;20028;-76
2023/05/15 03:58:07;;;;;;;17.40;11.15;;;8.60;60.20;;;;;;5071741;28;20037;-73
2023/05/15 04:00:33;;;;;;;16.63;12.32;;;8.50;60.50;;;;;;5071522;28;20032;-75
2023/05/15 04:03:01;;;;;;;19.52;13.57;;;8.50;60.40;;;;;;5073241;28;20056;-75
2023/05/15 04:05:27;;;;;;;19.30;13.15;;;8.50;60.30;;;;;;5068879;28;20095;-75
2023/05/15 04:07:53;;;;;;;15.20;11.98;;;8.60;60.20;;;;;;5063593;28;20693;-74
2023/05/15 04:10:18;;;;;;;16.38;12.55;;;8.60;60.10;;;;;;5068056;28;20024;-75
2023/05/15 04:12:44;;;;;;;16.67;12.73;;;8.70;60.30;;;;;;5044263;28;20025;-75
2023/05/15 04:15:20;;;;;;;17.00;12.65;;;8.70;60.30;;;;;;5074624;28;20032;-76
2023/05/15 04:17:47;;;;;;;17.08;12.10;;;8.80;60.20;;;;;;5055017;28;20027;-75
2023/05/15 04:20:14;;;;;;;17.70;12.20;;;8.80;60.30;;;;;;5073889;28;20032;-75
2023/05/15 04:22:40;;;;;;;15.50;11.65;;;8.80;60.30;;;;;;5071392;28;20033;-76
2023/05/15 04:25:06;;;;;;;16.65;11.93;;;8.80;60.40;;;;;;5070515;28;20433;-77
2023/05/15 04:27:32;;;;;;;15.13;12.07;;;8.80;60.10;;;;;;5074870;28;20405;-77
2023/05/15 04:29:59;;;;;;;18.58;12.48;;;8.90;60.20;;;;;;5073322;28;20044;-77
2023/05/15 04:32:26;;;;;;;17.08;12.52;;;9.00;60.10;;;;;;5074054;28;20111;-75
2023/05/15 04:34:52;;;;;;;15.77;11.93;;;9.00;60.20;;;;;;5071061;28;20033;-74
2023/05/15 04:37:17;;;;;;;16.92;12.25;;;9.10;60.10;;;;;;5073214;28;20318;-75
2023/05/15 04:39:43;;;;;;;13.25;10.38;;;9.20;60.10;;;;;;5071925;28;20036;-74
2023/05/15 04:42:09;;;;;;;12.15;9.35;;;9.20;60.50;;;;;;5073854;28;20025;-75
2023/05/15 04:44:37;;;;;;;13.43;10.70;;;9.20;60.30;;;;;;5068633;28;20032;-75
2023/05/15 04:47:03;;;;;;;12.90;9.93;;;9.30;60.00;;;;;;5056263;28;20252;-76
2023/05/15 04:49:28;;;;;;;14.68;10.35;;;9.40;60.00;;;;;;5072255;28;20097;-74
2023/05/15 04:51:54;;;;;;;11.27;9.35;;;9.40;60.10;;;;;;5074174;28;20031;-74
2023/05/15 04:54:20;;;;;;;16.55;11.05;;;9.50;60.00;;;;;;5069020;28;20129;-74
2023/05/15 04:56:45;;;;;;;14.43;10.93;;;9.60;60.10;;;;;;5074342;28;20039;-74
2023/05/15 04:59:12;;;;;;;14.60;10.45;;;9.60;60.50;;;;;;5072172;28;20029;-74
2023/05/15 05:01:38;;;;;;;14.40;10.73;;;9.60;60.50;;;;;;5074978;28;20074;-76
2023/05/15 05:04:03;;;;;;;12.43;10.15;;;9.60;60.10;;;;;;5075478;28;20044;-75
2023/05/15 05:06:29;;;;;;;15.45;10.68;;;9.70;60.00;;;;;;5073472;28;20031;-75
2023/05/15 05:08:55;;;;;;;12.30;9.65;;;9.90;59.90;;;;;;5074917;28;20025;-75
2023/05/15 05:11:20;;;;;;;11.43;9.15;;;9.90;60.00;;;;;;5077104;28;20024;-76
2023/05/15 05:13:46;;;;;;;16.38;11.77;;;10.00;59.90;;;;;;5060820;28;20409;-75
2023/05/15 05:16:11;;;;;;;14.07;10.60;;;10.10;59.80;;;;;;5076090;28;20070;-77
2023/05/15 05:18:37;;;;;;;11.02;9.18;;;10.20;60.20;;;;;;5059955;28;20030;-75
2023/05/15 05:21:03;;;;;;;11.60;9.18;;;10.00;61.40;;;;;;5073286;28;20048;-75
2023/05/15 05:23:29;;;;;;;10.75;9.02;;;10.00;60.70;;;;;;5077051;28;20039;-75
2023/05/15 05:25:55;;;;;;;13.57;10.25;;;10.10;60.30;;;;;;5060690;28;20032;-76
2023/05/15 05:28:21;;;;;;;13.50;10.10;;;10.30;60.40;;;;;;5077895;28;20436;-75
2023/05/15 05:30:47;;;;;;;15.43;11.38;;;10.40;60.20;;;;;;5060468;28;20052;-75
2023/05/15 05:33:13;;;;;;;13.75;10.68;;;10.50;61.80;;;;;;5078265;28;20040;-75
2023/05/15 05:35:39;;;;;;;14.30;11.05;;;10.60;61.50;;;;;;5076649;28;20062;-76
2023/05/15 05:38:04;;;;;;;12.82;10.40;;;10.60;61.00;;;;;;5075076;28;20029;-76
2023/05/15 05:40:30;;;;;;;11.07;8.98;;;10.60;62.30;;;;;;5060508;28;20040;-76
2023/05/15 05:43:02;;;;;;;11.50;8.82;;;10.60;62.90;;;;;;5060066;28;20035;-76
2023/05/15 05:45:28;;;;;;;11.15;8.73;;;10.70;61.80;;;;;;5077949;28;20021;-76
2023/05/15 05:47:55;;;;;;;11.65;8.93;;;10.60;64.90;;;;;;5076209;28;20397;-76
2023/05/15 05:50:21;;;;;;;12.63;9.75;;;10.70;64.40;;;;;;5075930;28;20027;-75
2023/05/15 05:52:46;;;;;;;11.88;9.50;;;10.90;62.70;;;;;;5074885;28;20032;-76
2023/05/15 05:55:12;;;;;;;13.00;9.18;;;11.10;64.70;;;;;;5059761;28;20024;-76
2023/05/15 05:57:38;;;;;;;10.20;8.45;;;11.30;65.40;;;;;;5076317;28;20024;-75
2023/05/15 06:00:07;;;;;;;10.43;7.05;;;11.20;69.70;;;;;;5077501;28;20309;-76
2023/05/15 06:02:33;;;;;;;11.15;7.90;;;11.40;67.10;;;;;;5066779;28;20039;-75
2023/05/15 06:04:58;;;;;;;12.25;8.85;;;11.50;73.10;;;;;;5077881;28;20029;-76
2023/05/15 06:07:24;;;;;;;9.10;7.00;;;11.40;78.50;;;;;;5059430;28;20025;-76
2023/05/15 06:09:50;;;;;;;8.82;7.22;;;11.30;80.90;;;;;;5073828;28;20051;-76
2023/05/15 06:12:15;;;;;;;9.05;7.18;;;11.50;79.40;;;;;;5076294;28;20031;-76
2023/05/15 06:14:41;;;;;;;8.48;6.65;;;11.80;79.80;;;;;;5078384;28;20020;-76
2023/05/15 06:17:07;;;;;;;10.52;8.13;;;12.10;79.80;;;;;;5076691;28;20023;-76
2023/05/15 06:19:32;;;;;;;10.90;8.45;;;12.20;86.70;;;;;;5077377;28;20041;-76
2023/05/15 06:21:58;;;;;;;13.82;10.07;;;12.00;90.80;;;;;;5055054;28;20052;-76
2023/05/15 06:24:23;;;;;;;13.02;10.15;;;11.90;90.90;;;;;;5055129;28;20772;-76
2023/05/15 06:26:49;;;;;;;15.38;12.40;;;11.80;90.20;;;;;;5073708;28;20029;-75
2023/05/15 06:29:14;;;;;;;14.70;11.15;;;11.60;90.80;;;;;;5075911;28;20119;-75
2023/05/15 06:31:40;;;;;;;13.90;11.38;;;11.40;90.00;;;;;;5075578;28;20032;-75
2023/05/15 06:34:05;;;;;;;12.38;9.93;;;11.20;90.20;;;;;;5077011;28;20017;-75
2023/05/15 06:36:32;;;;;;;14.20;10.35;;;10.90;89.70;;;;;;5074277;28;20036;-75
2023/05/15 06:38:58;;;;;;;13.40;10.25;;;10.80;87.90;;;;;;5072457;28;20082;-75
2023/05/15 06:41:24;;;;;;;14.93;10.27;;;10.90;87.80;;;;;;5067786;28;20048;-75
2023/05/15 06:43:49;;;;;;;12.73;9.93;;;10.90;87.90;;;;;;5076105;28;20029;-75
2023/05/15 06:46:17;;;;;;;14.50;9.75;;;11.10;85.40;;;;;;5077754;28;20028;-75
2023/05/15 06:48:43;;;;;;;12.70;10.73;;;11.50;83.50;;;;;;5074749;28;20035;-75
2023/05/15 06:51:09;;;;;;;13.00;10.05;;;11.90;88.60;;;;;;5051036;28;20025;-75
2023/05/15 06:53:35;;;;;;;14.05;9.95;;;12.00;93.70;;;;;;5075192;28;20032;-74
2023/05/15 06:56:01;;;;;;;13.25;9.32;;;12.00;95.30;;;;;;5075485;28;20085;-74
2023/05/15 06:58:26;;;;;;;11.02;8.50;;;12.20;95.00;;;;;;5077640;28;20033;-75
2023/05/15 07:00:52;;;;;;;11.20;8.65;;;12.30;98.00;;;;;;5073170;28;20032;-75
2023/05/15 07:03:17;;;;;;;11.90;9.15;;;12.30;97.50;;;;;;5077137;28;20039;-75
2023/05/15 07:05:43;;;;;;;11.23;8.32;;;12.30;97.40;;;;;;5076368;28;20138;-75
2023/05/15 07:08:12;;;;;;;10.55;8.25;;;12.40;98.00;;;;;;5072256;28;20020;-75
2023/05/15 07:10:38;;;;;;;12.13;9.15;;;12.50;98.00;;;;;;5069239;28;20028;-75
2023/05/15 07:13:03;;;;;;;10.98;8.32;;;12.70;98.00;;;;;;5076165;28;20967;-75
2023/05/15 07:15:29;;;;;;;12.93;8.50;;;12.90;98.00;;;;;;5074967;28;20028;-75
2023/05/15 07:17:54;;;;;;;12.93;9.57;;;13.10;98.00;;;;;;5076202;28;20039;-75
2023/05/15 07:20:20;;;;;;;11.23;8.93;;;13.10;98.00;;;;;;5076074;28;20029;-76
2023/05/15 07:22:45;;;;;;;11.85;8.18;;;13.20;98.00;;;;;;5075603;28;20039;-76
2023/05/15 07:25:15;;;;;;;10.75;8.00;;;13.10;98.00;;;;;;5074811;28;20079;-75
2023/05/15 07:27:40;;;;;;;10.35;7.78;;;13.00;98.00;;;;;;5072869;28;20337;-75
2023/05/15 07:30:06;;;;;;;10.98;8.60;;;13.20;98.00;;;;;;5057430;28;20044;-75
2023/05/15 07:32:32;;;;;;;11.98;9.25;;;13.20;98.00;;;;;;5074757;28;20025;-75
2023/05/15 07:34:58;;;;;;;12.40;9.13;;;12.90;98.00;;;;;;5056912;28;20040;-75
2023/05/15 07:37:24;;;;;;;11.02;8.38;;;12.70;98.00;;;;;;5073196;28;20025;-75
2023/05/15 07:39:50;;;;;;;11.45;8.43;;;12.60;98.00;;;;;;5074665;28;20035;-75
2023/05/15 07:42:16;;;;;;;12.15;8.95;;;12.80;98.00;;;;;;5075825;28;20029;-75
2023/05/15 07:44:41;;;;;;;13.35;8.65;;;12.70;98.00;;;;;;5057351;28;20490;-74
2023/05/15 07:47:10;;;;;;;11.38;9.10;;;12.60;98.00;;;;;;5074678;28;20085;-73
2023/05/15 07:49:35;;;;;;;11.82;8.85;;;12.60;98.00;;;;;;5076439;28;20040;-75
2023/05/15 07:52:01;;;;;;;10.82;8.48;;;12.50;98.00;;;;;;5075638;28;20051;-75
2023/05/15 07:54:26;;;;;;;10.63;8.48;;;12.50;98.00;;;;;;5074450;28;20438;-74
2023/05/15 08:14:42;;;;;;;8.57;6.80;;;13.50;98.00;;;;;;5175912;27;20891;-78
2023/05/15 08:17:08;;;;;;;8.23;6.07;;;16.40;93.70;;;;;;5175213;27;20026;-75
2023/05/15 08:19:34;;;;;;;8.48;6.82;;;16.80;91.80;;;;;;5173709;27;20054;-75
2023/05/15 08:21:59;;;;;;;8.93;6.45;;;17.10;89.60;;;;;;5177849;27;20027;-74
2023/05/15 08:24:25;;;;;;;8.73;6.60;;;16.90;91.40;;;;;;5155799;27;20034;-75
2023/05/15 08:26:50;;;;;;;11.13;6.53;;;17.10;90.70;;;;;;5156733;27;20027;-75
2023/05/15 08:29:16;;;;;;;6.80;5.20;;;17.80;89.80;;;;;;5180282;27;20026;-75
2023/05/15 08:31:42;;;;;;;8.52;6.10;;;18.00;88.00;;;;;;5188079;27;20410;-76
2023/05/15 08:34:07;;;;;;;7.80;5.78;;;18.90;86.90;;;;;;5174145;27;20014;-74
2023/05/15 08:36:33;;;;;;;10.57;6.10;;;19.50;83.10;;;;;;5174819;27;20034;-75
2023/05/15 08:38:58;;;;;;;8.20;5.15;;;18.70;83.70;;;;;;5153965;27;20094;-75
2023/05/15 08:41:30;;;;;;;9.80;4.85;;;18.80;84.90;;;;;;5177768;27;20115;-75
2023/05/15 08:43:57;;;;;;;6.30;4.53;;;19.60;86.80;;;;;;5173904;27;20525;-75
2023/05/15 08:46:23;;;;;;;8.35;5.28;;;20.70;81.60;;;;;;5174832;27;20022;-77
2023/05/15 08:48:51;;;;;;;7.30;5.30;;;21.10;79.90;;;;;;5173106;27;20027;-75
2023/05/15 08:51:17;;;;;;;7.18;4.70;;;21.10;77.80;;;;;;5176612;27;20469;-75
2023/05/15 08:53:44;;;;;;;6.60;5.15;;;21.30;78.20;;;;;;5173830;27;20275;-74
2023/05/15 08:56:10;;;;;;;7.10;5.45;;;21.10;78.30;;;;;;5171825;27;20040;-75
2023/05/15 08:58:35;;;;;;;7.70;4.93;;;20.00;80.80;;;;;;5173296;27;20344;-75
2023/05/15 09:01:02;;;;;;;7.63;4.78;;;19.60;81.50;;;;;;5174349;27;20018;-75
2023/05/15 09:03:27;;;;;;;8.95;5.00;;;19.10;81.40;;;;;;5171436;27;20046;-75
2023/05/15 09:05:54;;;;;;;7.00;4.90;;;19.10;83.30;;;;;;5184501;27;20022;-75
2023/05/15 09:08:22;;;;;;;7.50;5.00;;;19.40;82.60;;;;;;5155837;27;20054;-75
2023/05/15 09:10:48;;;;;;;6.75;4.47;;;19.90;80.70;;;;;;5174778;27;20015;-75
2023/05/15 09:13:14;;;;;;;8.30;5.10;;;19.50;80.00;;;;;;5177275;27;20050;-75
2023/05/15 09:15:41;;;;;;;9.20;5.35;;;18.90;82.50;;;;;;5159587;27;20022;-75
2023/05/15 09:18:07;;;;;;;6.85;5.10;;;18.30;82.90;;;;;;5154464;27;20030;-75
2023/05/15 09:20:35;;;;;;;8.20;4.60;;;18.40;84.60;;;;;;5158908;27;20109;-76
2023/05/15 09:23:03;;;;;;;5.93;4.25;;;19.40;81.60;;;;;;5160148;27;20110;-75
2023/05/15 09:25:43;;;;;;;8.40;4.68;;;20.50;79.90;;;;;;5158580;27;20074;-75
2023/05/15 09:28:23;;;;;;;6.30;4.70;;;20.20;77.50;;;;;;5162721;27;20015;-75
2023/05/15 09:30:49;;;;;;;8.18;4.75;;;20.00;78.30;;;;;;5158705;27;20064;-76
2023/05/15 09:33:15;;;;;;;6.45;4.35;;;19.50;79.20;;;;;;5145049;27;20098;-75
2023/05/15 09:35:41;;;;;;;7.35;4.78;;;18.90;80.40;;;;;;5156585;27;20049;-75
2023/05/15 09:38:09;;;;;;;7.55;4.45;;;19.00;82.10;;;;;;5161201;27;20026;-75
2023/05/15 09:40:34;;;;;;;7.88;4.85;;;19.00;81.20;;;;;;5158962;27;20023;-76
2023/05/15 09:43:00;;;;;;;7.03;4.70;;;18.90;83.00;;;;;;5141773;27;20095;-75
2023/05/15 09:45:28;;;;;;;6.95;5.00;;;19.00;81.70;;;;;;5159860;27;20042;-75
2023/05/15 09:47:54;;;;;;;6.50;4.90;;;19.30;80.70;;;;;;5158423;27;20073;-76
2023/05/15 09:50:30;;;;;;;5.97;4.28;;;20.10;79.50;;;;;;5159447;27;20015;-75
2023/05/15 09:52:58;;;;;;;8.30;4.10;;;22.20;75.10;;;;;;5158645;27;20023;-76
2023/05/15 09:55:23;;;;;;;7.22;4.25;;;23.60;73.20;;;;;;5141636;27;20426;-75
2023/05/15 09:58:06;;;;;;;7.68;4.00;;;22.60;70.90;;;;;;5159629;27;20114;-75
2023/05/15 10:00:33;;;;;;;5.65;4.25;;;23.10;70.30;;;;;;5159830;27;20019;-75
2023/05/15 10:03:03;;;;;;;7.15;5.13;;;22.60;71.00;;;;;;5155908;27;20019;-75
2023/05/15 10:05:29;;;;;;;7.80;5.10;;;20.30;74.40;;;;;;5159901;27;20011;-75
2023/05/15 10:07:56;;;;;;;6.95;5.00;;;19.00;78.00;;;;;;5161301;27;20019;-75
2023/05/15 10:10:22;;;;;;;8.20;4.78;;;18.40;77.40;;;;;;5157805;27;20023;-75
2023/05/15 10:12:52;;;;;;;6.75;4.63;;;18.70;78.40;;;;;;5163010;27;20095;-75
2023/05/15 10:15:20;;;;;;;6.47;4.45;;;19.20;78.10;;;;;;5159418;27;20036;-75
2023/05/15 10:17:49;;;;;;;6.78;4.38;;;19.90;81.70;;;;;;5159533;27;20023;-75
2023/05/15 10:20:17;;;;;;;9.13;4.90;;;21.30;75.80;;;;;;5159355;27;20079;-75
2023/05/15 10:22:49;;;;;;;6.50;4.43;;;21.40;74.70;;;;;;5158233;27;20030;-75
2023/05/15 10:25:46;;;;;;;7.22;4.97;;;20.50;74.70;;;;;;5159049;27;20051;-75
2023/05/15 10:28:13;;;;;;;8.38;4.75;;;19.40;77.90;;;;;;5156854;27;20023;-75
2023/05/15 10:30:41;;;;;;;6.25;4.47;;;18.90;80.50;;;;;;5158753;27;20426;-75
2023/05/15 10:33:07;;;;;;;8.35;4.82;;;18.90;81.00;;;;;;5137248;27;20027;-75
2023/05/15 10:35:37;;;;;;;7.20;5.28;;;18.50;82.20;;;;;;5138346;27;20047;-75
2023/05/15 10:38:05;;;;;;;9.30;4.90;;;17.70;80.40;;;;;;5157233;27;20388;-75
2023/05/15 10:40:32;;;;;;;6.28;4.57;;;17.30;83.80;;;;;;5140899;27;20027;-74
2023/05/15 10:43:02;;;;;;;6.35;4.35;;;17.10;80.30;;;;;;5158358;27;20031;-79
2023/05/15 10:45:28;;;;;;;7.55;4.43;;;17.00;79.70;;;;;;5139698;27;20478;-77
2023/05/15 10:47:54;;;;;;;7.22;4.25;;;17.20;81.00;;;;;;5157757;27;20027;-77
2023/05/15 10:50:20;;;;;;;8.57;5.60;;;17.20;79.00;;;;;;5142675;27;20029;-76
2023/05/15 10:52:51;;;;;;;10.80;8.30;;;17.30;81.10;;;;;;5158824;27;20310;-77
2023/05/15 10:55:17;;;;;;;10.73;6.30;;;17.00;84.80;;;;;;5139242;27;20121;-78
2023/05/15 10:57:45;;;;;;;11.38;7.93;;;16.00;89.00;;;;;;5158633;27;20073;-78
2023/05/15 11:00:24;;;;;;;10.77;6.60;;;15.40;94.40;;;;;;5160662;27;20083;-77
2023/05/15 11:02:55;;;;;;;10.52;6.70;;;14.90;95.50;;;;;;5138835;27;20102;-77
2023/05/15 11:05:21;;;;;;;12.45;8.20;;;14.70;97.20;;;;;;5157499;27;20027;-77
2023/05/15 11:08:14;;;;;;;11.30;9.02;;;14.50;97.00;;;;;;5158590;27;20075;-77
2023/05/15 11:10:40;;;;;;;7.93;4.70;;;14.20;96.90;;;;;;5142308;27;20023;-76
2023/05/15 11:13:06;;;;;;;7.95;3.80;;;13.90;98.00;;;;;;5158205;27;20046;-76
2023/05/15 11:15:52;;;;;;;6.75;3.72;;;13.70;96.30;;;;;;5157205;27;20105;-75
2023/05/15 11:18:19;;;;;;;7.40;3.38;;;13.70;95.60;;;;;;5157206;27;20068;-75
2023/05/15 11:20:51;;;;;;;7.25;3.70;;;13.90;94.10;;;;;;5142081;27;20026;-76
2023/05/15 11:23:20;;;;;;;3.85;2.47;;;14.30;94.50;;;;;;5139776;27;20054;-75
2023/05/15 11:25:55;;;;;;;4.63;2.85;;;15.00;92.30;;;;;;5154278;27;20011;-76
2023/05/15 11:28:22;;;;;;;5.53;2.60;;;15.80;91.10;;;;;;5140019;27;20023;-76
2023/05/15 11:30:51;;;;;;;5.88;2.80;;;16.40;87.10;;;;;;5160388;27;20450;-76
2023/05/15 11:33:18;;;;;;;3.33;1.95;;;17.00;85.60;;;;;;5138468;27;20033;-76
2023/05/15 11:35:46;;;;;;;19.10;7.60;;;17.40;81.90;;;;;;5156956;27;20154;-76
2023/05/15 11:38:15;;;;;;;5.28;2.47;;;17.50;81.20;;;;;;5157675;27;20062;-77
2023/05/15 11:40:46;;;;;;;4.07;2.30;;;17.20;80.60;;;;;;5160030;27;20410;-75
2023/05/15 11:43:19;;;;;;;7.32;3.40;;;16.90;84.00;;;;;;5139571;27;20027;-75
2023/05/15 11:45:47;;;;;;;4.47;2.97;;;16.50;86.30;;;;;;5156588;27;20072;-75
2023/05/15 11:48:15;;;;;;;6.95;3.25;;;15.80;86.70;;;;;;5155335;27;20471;-75
2023/05/15 11:50:41;;;;;;;7.88;3.88;;;15.50;89.80;;;;;;5157854;27;20377;-75
2023/05/15 11:53:08;;;;;;;8.60;4.20;;;15.20;91.60;;;;;;5159795;27;20055;-75
2023/05/15 11:55:39;;;;;;;5.75;3.72;;;14.80;92.80;;;;;;5157748;27;20029;-75
2023/05/15 11:58:09;;;;;;;5.25;3.42;;;14.30;94.70;;;;;;5156848;27;20026;-75
2023/05/15 12:00:34;;;;;;;4.65;3.08;;;14.20;94.30;;;;;;5147180;27;20058;-75
2023/05/15 12:03:02;;;;;;;4.53;3.05;;;14.60;94.40;;;;;;5158714;27;20050;-74
2023/05/15 12:05:29;;;;;;;4.65;2.97;;;15.10;92.40;;;;;;5157537;27;20312;-74
2023/05/15 12:07:55;;;;;;;5.88;2.72;;;15.50;91.10;;;;;;5137754;27;20022;-74
2023/05/15 12:10:21;;;;;;;4.97;2.90;;;16.40;86.90;;;;;;5158203;27;20019;-74
2023/05/15 12:12:47;;;;;;;4.38;2.55;;;17.50;87.10;;;;;;5156917;27;20035;-74
2023/05/15 12:15:14;;;;;;;4.70;2.80;;;18.10;82.90;;;;;;5152098;27;20378;-74
2023/05/15 12:17:41;;;;;;;8.13;3.83;;;18.80;83.20;;;;;;5154768;27;20054;-75
2023/05/15 12:20:15;;;;;;;8.45;3.65;;;18.90;80.90;;;;;;5157275;27;20023;-74
2023/05/15 12:22:41;;;;;;;5.78;3.45;;;18.60;81.30;;;;;;5156929;27;20022;-74
2023/05/15 12:25:10;;;;;;;5.20;3.15;;;18.40;81.00;;;;;;5156241;27;20022;-75
2023/05/15 12:27:36;;;;;;;5.60;3.55;;;18.50;80.40;;;;;;5138846;27;20351;-77
2023/05/15 12:30:03;;;;;;;9.32;4.35;;;18.80;81.70;;;;;;5156768;27;20046;-79
2023/05/15 12:32:31;;;;;;;6.43;4.20;;;18.70;82.80;;;;;;5156043;27;20319;-84
2023/05/15 12:34:56;;;;;;;5.43;3.53;;;18.80;79.50;;;;;;5158672;27;20034;-74
2023/05/15 12:37:22;;;;;;;6.97;4.88;;;18.70;78.40;;;;;;5157526;27;20031;-76
2023/05/15 12:39:52;;;;;;;5.65;3.70;;;18.30;79.00;;;;;;5156887;27;20049;-78
2023/05/15 12:42:18;;;;;;;10.73;4.82;;;18.00;78.30;;;;;;5138221;27;20076;-78
2023/05/15 12:44:44;;;;;;;7.50;3.42;;;18.10;82.10;;;;;;5156255;27;20050;-76
2023/05/15 12:47:13;;;;;;;7.85;4.50;;;18.60;79.00;;;;;;5142625;27;20461;-76
2023/05/15 12:49:41;;;;;;;5.78;2.90;;;18.50;80.10;;;;;;5157172;27;20022;-76
2023/05/15 12:52:09;;;;;;;5.32;3.05;;;19.00;78.80;;;;;;5142772;27;20079;-77
2023/05/15 12:54:42;;;;;;;5.20;3.33;;;19.40;77.80;;;;;;5160168;27;20022;-79
2023/05/15 12:57:08;;;;;;;5.10;3.13;;;19.80;75.60;;;;;;5161209;27;20025;-79
2023/05/15 12:59:34;;;;;;;4.72;2.97;;;19.90;77.50;;;;;;5152693;27;20023;-79